Terminal Aerodrome Forecast
Issued by NWS

Home | Current Version | Previous Version | Text Only | Print | Product List | Glossary On
Versions: 1 2 3 4 5 6 7 8 9 10 11 12 13 14 15 16
622
FTUS46 KMTR 311120
TAFOAK
TAF
KOAK 311120Z 3112/0118 31007KT P6SM FEW005
     FM312200 30013KT P6SM SKC
     FM010400 30006KT P6SM FEW009
     FM011000 29005KT P6SM BKN009=

USA.gov is the U.S. government's official web portal to all federal, state and local government web resources and services.